sensor_id;sensor_type;location;lat;lon;timestamp;temperature;humidity
25688;DHT22;17407;51.120;3.702;2023-04-06T07:50:45;9.80;99.90
25688;DHT22;17407;51.120;3.702;2023-04-06T07:56:01;10.00;99.90
25688;DHT22;17407;51.120;3.702;2023-04-06T08:03:45;9.90;99.90
25688;DHT22;17407;51.120;3.702;2023-04-06T08:06:12;9.80;99.90
25688;DHT22;17407;51.120;3.702;2023-04-06T08:11:13;9.70;99.90
25688;DHT22;17407;51.120;3.702;2023-04-06T08:13:39;9.90;99.90
25688;DHT22;17407;51.120;3.702;2023-04-06T08:44:20;9.90;99.90
25688;DHT22;17407;51.120;3.702;2023-04-06T08:59:43;9.70;99.90
25688;DHT22;17407;51.120;3.702;2023-04-06T09:02:17;9.90;99.90
25688;DHT22;17407;51.120;3.702;2023-04-06T09:04:44;9.70;99.90
25688;DHT22;17407;51.120;3.702;2023-04-06T09:07:11;9.80;99.90
25688;DHT22;17407;51.120;3.702;2023-04-06T09:09:37;9.80;99.90
25688;DHT22;17407;51.120;3.702;2023-04-06T09:19:55;10.00;99.90
25688;DHT22;17407;51.120;3.702;2023-04-06T09:22:21;10.10;99.90
25688;DHT22;17407;51.120;3.702;2023-04-06T09:30:09;9.80;99.90
25688;DHT22;17407;51.120;3.702;2023-04-06T09:35:14;9.90;99.90
25688;DHT22;17407;51.120;3.702;2023-04-06T09:37:41;9.90;99.90
25688;DHT22;17407;51.120;3.702;2023-04-06T09:40:07;9.90;99.90
25688;DHT22;17407;51.120;3.702;2023-04-06T09:42:34;10.00;99.90
25688;DHT22;17407;51.120;3.702;2023-04-06T09:45:01;10.00;99.90
25688;DHT22;17407;51.120;3.702;2023-04-06T09:47:27;9.90;99.90
25688;DHT22;17407;51.120;3.702;2023-04-06T09:49:58;9.90;99.90
25688;DHT22;17407;51.120;3.702;2023-04-06T09:52:30;10.00;99.90
25688;DHT22;17407;51.120;3.702;2023-04-06T09:55:02;10.10;99.90
25688;DHT22;17407;51.120;3.702;2023-04-06T09:57:45;10.00;99.90
25688;DHT22;17407;51.120;3.702;2023-04-06T10:00:13;10.00;99.90
25688;DHT22;17407;51.120;3.702;2023-04-06T10:02:54;9.90;99.90
25688;DHT22;17407;51.120;3.702;2023-04-06T10:05:27;10.10;99.90
25688;DHT22;17407;51.120;3.702;2023-04-06T10:07:57;10.10;99.90
25688;DHT22;17407;51.120;3.702;2023-04-06T10:10:26;10.10;99.90
25688;DHT22;17407;51.120;3.702;2023-04-06T10:12:52;10.20;99.90
25688;DHT22;17407;51.120;3.702;2023-04-06T10:15:19;10.20;99.90
25688;DHT22;17407;51.120;3.702;2023-04-06T10:17:45;10.10;99.90
25688;DHT22;17407;51.120;3.702;2023-04-06T10:20:36;10.00;99.90
25688;DHT22;17407;51.120;3.702;2023-04-06T10:23:12;10.10;99.90
25688;DHT22;17407;51.120;3.702;2023-04-06T10:25:55;10.10;99.90
25688;DHT22;17407;51.120;3.702;2023-04-06T10:28:21;10.00;99.90
25688;DHT22;17407;51.120;3.702;2023-04-06T10:30:47;9.80;99.90
25688;DHT22;17407;51.120;3.702;2023-04-06T10:33:18;10.00;99.90
25688;DHT22;17407;51.120;3.702;2023-04-06T10:35:44;10.00;99.90
25688;DHT22;17407;51.120;3.702;2023-04-06T10:38:10;10.10;99.90
25688;DHT22;17407;51.120;3.702;2023-04-06T10:40:40;10.10;99.90
25688;DHT22;17407;51.120;3.702;2023-04-06T10:43:11;10.10;99.90
25688;DHT22;17407;51.120;3.702;2023-04-06T10:45:37;10.00;99.90
25688;DHT22;17407;51.120;3.702;2023-04-06T10:48:17;9.90;99.90
25688;DHT22;17407;51.120;3.702;2023-04-06T10:50:50;9.90;99.90
25688;DHT22;17407;51.120;3.702;2023-04-06T10:53:26;9.90;99.90
25688;DHT22;17407;51.120;3.702;2023-04-06T10:55:54;9.90;99.90
25688;DHT22;17407;51.120;3.702;2023-04-06T10:58:25;10.00;99.90
25688;DHT22;17407;51.120;3.702;2023-04-06T11:00:51;10.00;99.90
25688;DHT22;17407;51.120;3.702;2023-04-06T11:03:17;10.00;99.90
25688;DHT22;17407;51.120;3.702;2023-04-06T11:05:52;10.10;99.90
25688;DHT22;17407;51.120;3.702;2023-04-06T11:08:33;10.20;99.90
25688;DHT22;17407;51.120;3.702;2023-04-06T11:11:13;10.20;99.90
25688;DHT22;17407;51.120;3.702;2023-04-06T11:16:19;10.30;99.90
25688;DHT22;17407;51.120;3.702;2023-04-06T11:18:59;10.20;99.90
25688;DHT22;17407;51.120;3.702;2023-04-06T11:22:07;10.10;99.90
25688;DHT22;17407;51.120;3.702;2023-04-06T11:24:39;10.30;99.90
25688;DHT22;17407;51.120;3.702;2023-04-06T11:27:06;10.30;99.90
25688;DHT22;17407;51.120;3.702;2023-04-06T11:29:31;10.40;99.90
25688;DHT22;17407;51.120;3.702;2023-04-06T11:32:03;10.40;99.90
25688;DHT22;17407;51.120;3.702;2023-04-06T11:34:30;10.40;99.90
25688;DHT22;17407;51.120;3.702;2023-04-06T11:36:58;10.40;99.90
25688;DHT22;17407;51.120;3.702;2023-04-06T11:39:25;10.40;99.90
25688;DHT22;17407;51.120;3.702;2023-04-06T11:41:59;10.30;99.90
25688;DHT22;17407;51.120;3.702;2023-04-06T11:44:32;10.40;99.90
25688;DHT22;17407;51.120;3.702;2023-04-06T11:46:58;10.30;99.90
25688;DHT22;17407;51.120;3.702;2023-04-06T11:49:28;10.40;99.90
25688;DHT22;17407;51.120;3.702;2023-04-06T11:51:55;10.50;99.90
25688;DHT22;17407;51.120;3.702;2023-04-06T11:54:34;10.40;99.90
25688;DHT22;17407;51.120;3.702;2023-04-06T11:57:02;10.50;99.90
25688;DHT22;17407;51.120;3.702;2023-04-06T11:59:28;10.50;99.90
25688;DHT22;17407;51.120;3.702;2023-04-06T12:01:54;10.50;99.90
25688;DHT22;17407;51.120;3.702;2023-04-06T12:04:20;10.50;99.90
25688;DHT22;17407;51.120;3.702;2023-04-06T12:06:46;10.60;99.90
25688;DHT22;17407;51.120;3.702;2023-04-06T12:09:12;10.50;99.90
25688;DHT22;17407;51.120;3.702;2023-04-06T12:11:37;10.70;99.90
25688;DHT22;17407;51.120;3.702;2023-04-06T12:14:04;10.80;99.90
25688;DHT22;17407;51.120;3.702;2023-04-06T12:16:34;10.60;99.90
25688;DHT22;17407;51.120;3.702;2023-04-06T12:19:00;10.50;99.90
25688;DHT22;17407;51.120;3.702;2023-04-06T12:21:36;10.30;99.90
25688;DHT22;17407;51.120;3.702;2023-04-06T12:24:03;10.30;99.90
25688;DHT22;17407;51.120;3.702;2023-04-06T12:26:29;10.30;99.90
25688;DHT22;17407;51.120;3.702;2023-04-06T12:28:55;10.40;99.90
25688;DHT22;17407;51.120;3.702;2023-04-06T12:31:22;10.40;99.90
25688;DHT22;17407;51.120;3.702;2023-04-06T12:33:50;10.40;99.90
25688;DHT22;17407;51.120;3.702;2023-04-06T12:36:17;10.40;99.90
25688;DHT22;17407;51.120;3.702;2023-04-06T12:38:50;10.50;99.90
25688;DHT22;17407;51.120;3.702;2023-04-06T12:41:17;10.50;99.90
25688;DHT22;17407;51.120;3.702;2023-04-06T12:43:43;10.70;99.90
25688;DHT22;17407;51.120;3.702;2023-04-06T12:46:09;10.70;99.90
25688;DHT22;17407;51.120;3.702;2023-04-06T12:48:35;10.70;99.90
25688;DHT22;17407;51.120;3.702;2023-04-06T12:51:06;10.70;99.90
25688;DHT22;17407;51.120;3.702;2023-04-06T12:53:33;10.70;99.90
25688;DHT22;17407;51.120;3.702;2023-04-06T12:55:59;10.70;99.90
25688;DHT22;17407;51.120;3.702;2023-04-06T12:58:26;10.80;99.90
25688;DHT22;17407;51.120;3.702;2023-04-06T13:00:55;10.80;99.90
25688;DHT22;17407;51.120;3.702;2023-04-06T13:03:23;10.90;99.90
25688;DHT22;17407;51.120;3.702;2023-04-06T13:05:52;10.70;99.90
25688;DHT22;17407;51.120;3.702;2023-04-06T13:08:19;10.70;99.90
25688;DHT22;17407;51.120;3.702;2023-04-06T13:10:48;10.60;99.90
25688;DHT22;17407;51.120;3.702;2023-04-06T13:13:15;10.60;99.90
25688;DHT22;17407;51.120;3.702;2023-04-06T13:15:41;10.70;99.90
25688;DHT22;17407;51.120;3.702;2023-04-06T13:18:10;10.70;99.90
25688;DHT22;17407;51.120;3.702;2023-04-06T13:20:36;10.80;99.90
25688;DHT22;17407;51.120;3.702;2023-04-06T13:23:02;10.80;99.90
25688;DHT22;17407;51.120;3.702;2023-04-06T13:25:28;10.80;99.90
25688;DHT22;17407;51.120;3.702;2023-04-06T13:27:54;10.80;99.90
25688;DHT22;17407;51.120;3.702;2023-04-06T13:30:20;10.90;99.90
25688;DHT22;17407;51.120;3.702;2023-04-06T13:32:46;10.90;99.90
25688;DHT22;17407;51.120;3.702;2023-04-06T13:35:12;11.00;99.90
25688;DHT22;17407;51.120;3.702;2023-04-06T13:37:38;11.10;99.90
25688;DHT22;17407;51.120;3.702;2023-04-06T13:40:05;11.10;99.90
25688;DHT22;17407;51.120;3.702;2023-04-06T13:42:31;11.10;99.90
25688;DHT22;17407;51.120;3.702;2023-04-06T13:44:59;11.10;99.90
25688;DHT22;17407;51.120;3.702;2023-04-06T13:47:25;11.10;99.90
25688;DHT22;17407;51.120;3.702;2023-04-06T13:49:51;11.10;99.90
25688;DHT22;17407;51.120;3.702;2023-04-06T13:52:18;11.00;99.90
25688;DHT22;17407;51.120;3.702;2023-04-06T13:54:44;11.00;99.90
25688;DHT22;17407;51.120;3.702;2023-04-06T13:57:10;11.00;99.90
25688;DHT22;17407;51.120;3.702;2023-04-06T13:59:38;11.10;99.90
25688;DHT22;17407;51.120;3.702;2023-04-06T14:02:06;11.20;99.90
25688;DHT22;17407;51.120;3.702;2023-04-06T14:04:32;11.20;99.90
25688;DHT22;17407;51.120;3.702;2023-04-06T14:06:59;11.30;99.90
25688;DHT22;17407;51.120;3.702;2023-04-06T14:09:25;11.40;99.90
25688;DHT22;17407;51.120;3.702;2023-04-06T14:11:51;11.30;99.90
25688;DHT22;17407;51.120;3.702;2023-04-06T14:14:17;11.20;99.90
25688;DHT22;17407;51.120;3.702;2023-04-06T14:16:43;11.30;99.90
25688;DHT22;17407;51.120;3.702;2023-04-06T14:19:10;11.40;99.90
25688;DHT22;17407;51.120;3.702;2023-04-06T14:21:38;11.30;99.90
25688;DHT22;17407;51.120;3.702;2023-04-06T14:24:07;11.50;99.90
25688;DHT22;17407;51.120;3.702;2023-04-06T14:26:36;11.70;99.90
25688;DHT22;17407;51.120;3.702;2023-04-06T14:29:03;11.80;99.90
25688;DHT22;17407;51.120;3.702;2023-04-06T14:31:30;11.70;99.90
25688;DHT22;17407;51.120;3.702;2023-04-06T14:33:56;11.80;99.90
25688;DHT22;17407;51.120;3.702;2023-04-06T14:36:22;11.80;99.90
25688;DHT22;17407;51.120;3.702;2023-04-06T14:38:48;11.90;99.90
25688;DHT22;17407;51.120;3.702;2023-04-06T14:41:17;11.90;99.90
25688;DHT22;17407;51.120;3.702;2023-04-06T14:43:44;11.90;99.90
25688;DHT22;17407;51.120;3.702;2023-04-06T14:46:09;11.90;99.90
25688;DHT22;17407;51.120;3.702;2023-04-06T14:48:36;12.00;99.90
25688;DHT22;17407;51.120;3.702;2023-04-06T14:51:01;12.10;99.90
25688;DHT22;17407;51.120;3.702;2023-04-06T14:53:28;12.20;99.90
25688;DHT22;17407;51.120;3.702;2023-04-06T14:55:55;12.20;99.90
25688;DHT22;17407;51.120;3.702;2023-04-06T14:58:21;12.10;99.90
25688;DHT22;17407;51.120;3.702;2023-04-06T15:00:47;12.10;99.90
25688;DHT22;17407;51.120;3.702;2023-04-06T15:03:13;12.00;99.90
25688;DHT22;17407;51.120;3.702;2023-04-06T15:05:39;12.00;99.90
25688;DHT22;17407;51.120;3.702;2023-04-06T15:08:05;11.90;99.90
25688;DHT22;17407;51.120;3.702;2023-04-06T15:10:32;11.90;99.90
25688;DHT22;17407;51.120;3.702;2023-04-06T15:12:58;11.90;99.90
25688;DHT22;17407;51.120;3.702;2023-04-06T15:15:23;11.90;99.90
25688;DHT22;17407;51.120;3.702;2023-04-06T15:17:49;11.90;99.90
25688;DHT22;17407;51.120;3.702;2023-04-06T15:20:15;12.00;99.90
25688;DHT22;17407;51.120;3.702;2023-04-06T15:22:41;11.80;99.90
25688;DHT22;17407;51.120;3.702;2023-04-06T15:25:07;11.80;99.90
25688;DHT22;17407;51.120;3.702;2023-04-06T15:27:32;11.80;99.90
25688;DHT22;17407;51.120;3.702;2023-04-06T15:29:58;11.90;99.90
25688;DHT22;17407;51.120;3.702;2023-04-06T15:32:24;12.10;99.90
25688;DHT22;17407;51.120;3.702;2023-04-06T15:34:50;12.10;99.90
25688;DHT22;17407;51.120;3.702;2023-04-06T15:37:16;12.20;99.90
25688;DHT22;17407;51.120;3.702;2023-04-06T15:39:42;12.30;99.90
25688;DHT22;17407;51.120;3.702;2023-04-06T15:42:08;12.30;99.90
25688;DHT22;17407;51.120;3.702;2023-04-06T15:44:34;12.40;99.90
25688;DHT22;17407;51.120;3.702;2023-04-06T15:47:00;12.40;99.90
25688;DHT22;17407;51.120;3.702;2023-04-06T15:49:26;12.30;99.90
25688;DHT22;17407;51.120;3.702;2023-04-06T15:51:52;12.30;99.90
25688;DHT22;17407;51.120;3.702;2023-04-06T15:54:17;12.50;99.90
25688;DHT22;17407;51.120;3.702;2023-04-06T15:56:45;12.50;99.90
25688;DHT22;17407;51.120;3.702;2023-04-06T15:59:11;12.60;99.90
25688;DHT22;17407;51.120;3.702;2023-04-06T16:01:37;12.60;99.90
25688;DHT22;17407;51.120;3.702;2023-04-06T16:04:05;12.70;99.90
25688;DHT22;17407;51.120;3.702;2023-04-06T16:06:31;12.80;99.90
25688;DHT22;17407;51.120;3.702;2023-04-06T16:08:57;12.80;99.90
25688;DHT22;17407;51.120;3.702;2023-04-06T16:11:23;12.80;99.90
25688;DHT22;17407;51.120;3.702;2023-04-06T16:13:48;12.70;99.90
25688;DHT22;17407;51.120;3.702;2023-04-06T16:16:14;12.70;99.90
25688;DHT22;17407;51.120;3.702;2023-04-06T16:18:40;12.70;99.90
25688;DHT22;17407;51.120;3.702;2023-04-06T16:21:06;12.70;99.90
25688;DHT22;17407;51.120;3.702;2023-04-06T16:23:31;12.80;99.90
25688;DHT22;17407;51.120;3.702;2023-04-06T16:25:57;12.70;99.90
25688;DHT22;17407;51.120;3.702;2023-04-06T16:28:23;12.60;99.90
25688;DHT22;17407;51.120;3.702;2023-04-06T16:30:49;12.60;99.90
25688;DHT22;17407;51.120;3.702;2023-04-06T16:33:16;12.50;99.90
25688;DHT22;17407;51.120;3.702;2023-04-06T16:35:44;12.50;99.90
25688;DHT22;17407;51.120;3.702;2023-04-06T16:38:11;12.40;99.90
25688;DHT22;17407;51.120;3.702;2023-04-06T16:40:36;12.50;99.90
25688;DHT22;17407;51.120;3.702;2023-04-06T16:43:02;12.50;99.90
25688;DHT22;17407;51.120;3.702;2023-04-06T16:45:29;12.50;99.90
25688;DHT22;17407;51.120;3.702;2023-04-06T16:47:55;12.40;99.90
25688;DHT22;17407;51.120;3.702;2023-04-06T16:50:21;12.60;99.90
25688;DHT22;17407;51.120;3.702;2023-04-06T16:52:46;12.60;99.90
25688;DHT22;17407;51.120;3.702;2023-04-06T16:55:12;12.70;99.90
25688;DHT22;17407;51.120;3.702;2023-04-06T16:57:38;12.60;99.90
25688;DHT22;17407;51.120;3.702;2023-04-06T17:00:05;12.50;99.90
25688;DHT22;17407;51.120;3.702;2023-04-06T17:02:31;12.50;99.90
25688;DHT22;17407;51.120;3.702;2023-04-06T17:05:00;12.50;99.90
25688;DHT22;17407;51.120;3.702;2023-04-06T17:07:26;12.50;99.90
25688;DHT22;17407;51.120;3.702;2023-04-06T17:09:58;12.50;99.90
25688;DHT22;17407;51.120;3.702;2023-04-06T17:12:24;12.50;99.90
25688;DHT22;17407;51.120;3.702;2023-04-06T17:14:50;12.50;99.90
25688;DHT22;17407;51.120;3.702;2023-04-06T17:17:15;12.50;99.90
25688;DHT22;17407;51.120;3.702;2023-04-06T17:19:41;12.40;99.90
25688;DHT22;17407;51.120;3.702;2023-04-06T17:22:07;12.40;99.90
25688;DHT22;17407;51.120;3.702;2023-04-06T17:24:33;12.30;99.90
25688;DHT22;17407;51.120;3.702;2023-04-06T17:26:58;12.30;99.90
25688;DHT22;17407;51.120;3.702;2023-04-06T17:29:24;12.30;99.90
25688;DHT22;17407;51.120;3.702;2023-04-06T17:31:50;12.20;99.90
25688;DHT22;17407;51.120;3.702;2023-04-06T17:34:16;12.20;99.90
25688;DHT22;17407;51.120;3.702;2023-04-06T17:36:41;12.20;99.90
25688;DHT22;17407;51.120;3.702;2023-04-06T17:39:07;12.20;99.90
25688;DHT22;17407;51.120;3.702;2023-04-06T17:41:33;12.30;99.90
25688;DHT22;17407;51.120;3.702;2023-04-06T17:43:59;12.30;99.90
25688;DHT22;17407;51.120;3.702;2023-04-06T17:46:25;12.20;99.90
25688;DHT22;17407;51.120;3.702;2023-04-06T17:48:51;12.30;99.90
25688;DHT22;17407;51.120;3.702;2023-04-06T17:51:17;12.20;99.90
25688;DHT22;17407;51.120;3.702;2023-04-06T17:53:45;12.10;99.90
25688;DHT22;17407;51.120;3.702;2023-04-06T17:56:11;12.20;99.90
25688;DHT22;17407;51.120;3.702;2023-04-06T17:58:37;12.00;99.90
25688;DHT22;17407;51.120;3.702;2023-04-06T18:01:06;12.10;99.90
25688;DHT22;17407;51.120;3.702;2023-04-06T18:03:33;12.10;99.90
25688;DHT22;17407;51.120;3.702;2023-04-06T18:06:09;11.90;99.90
25688;DHT22;17407;51.120;3.702;2023-04-06T18:08:35;11.80;99.90
25688;DHT22;17407;51.120;3.702;2023-04-06T18:11:01;11.80;99.90
25688;DHT22;17407;51.120;3.702;2023-04-06T18:13:28;11.90;99.90
25688;DHT22;17407;51.120;3.702;2023-04-06T18:15:54;11.70;99.90
25688;DHT22;17407;51.120;3.702;2023-04-06T18:18:20;11.80;99.90
25688;DHT22;17407;51.120;3.702;2023-04-06T18:20:46;11.80;99.90
25688;DHT22;17407;51.120;3.702;2023-04-06T18:23:12;11.90;99.90
25688;DHT22;17407;51.120;3.702;2023-04-06T18:25:38;11.70;99.90
25688;DHT22;17407;51.120;3.702;2023-04-06T18:28:05;11.70;99.90
25688;DHT22;17407;51.120;3.702;2023-04-06T18:30:31;11.60;99.90
25688;DHT22;17407;51.120;3.702;2023-04-06T18:32:57;11.40;99.90
25688;DHT22;17407;51.120;3.702;2023-04-06T18:35:22;11.40;99.90
25688;DHT22;17407;51.120;3.702;2023-04-06T18:37:48;11.50;99.90
25688;DHT22;17407;51.120;3.702;2023-04-06T18:40:36;11.40;99.90
25688;DHT22;17407;51.120;3.702;2023-04-06T18:43:04;11.30;99.90
25688;DHT22;17407;51.120;3.702;2023-04-06T18:45:36;11.30;99.90
25688;DHT22;17407;51.120;3.702;2023-04-06T18:48:05;11.40;99.90
25688;DHT22;17407;51.120;3.702;2023-04-06T18:50:31;11.50;99.90
25688;DHT22;17407;51.120;3.702;2023-04-06T18:52:57;11.40;99.90
25688;DHT22;17407;51.120;3.702;2023-04-06T18:55:24;11.50;99.90
25688;DHT22;17407;51.120;3.702;2023-04-06T18:57:50;11.50;99.90
25688;DHT22;17407;51.120;3.702;2023-04-06T19:00:16;11.60;99.90
25688;DHT22;17407;51.120;3.702;2023-04-06T19:02:43;11.50;99.90
25688;DHT22;17407;51.120;3.702;2023-04-06T19:05:12;11.40;99.90
25688;DHT22;17407;51.120;3.702;2023-04-06T19:07:38;11.50;99.90
25688;DHT22;17407;51.120;3.702;2023-04-06T19:10:07;11.60;99.90
25688;DHT22;17407;51.120;3.702;2023-04-06T19:12:34;11.70;99.90
25688;DHT22;17407;51.120;3.702;2023-04-06T19:15:03;11.70;99.90
25688;DHT22;17407;51.120;3.702;2023-04-06T19:17:29;11.70;99.90
25688;DHT22;17407;51.120;3.702;2023-04-06T19:19:55;11.70;99.90
25688;DHT22;17407;51.120;3.702;2023-04-06T19:22:22;11.80;99.90
25688;DHT22;17407;51.120;3.702;2023-04-06T19:24:48;11.70;99.90
25688;DHT22;17407;51.120;3.702;2023-04-06T19:27:14;11.80;99.90
25688;DHT22;17407;51.120;3.702;2023-04-06T19:29:40;11.90;99.90
25688;DHT22;17407;51.120;3.702;2023-04-06T19:32:07;12.00;99.90
25688;DHT22;17407;51.120;3.702;2023-04-06T19:34:35;12.00;99.90
25688;DHT22;17407;51.120;3.702;2023-04-06T19:37:02;12.00;99.90
25688;DHT22;17407;51.120;3.702;2023-04-06T19:39:28;12.00;99.90
25688;DHT22;17407;51.120;3.702;2023-04-06T19:41:54;12.00;99.90
25688;DHT22;17407;51.120;3.702;2023-04-06T19:44:20;12.10;99.90
25688;DHT22;17407;51.120;3.702;2023-04-06T19:46:45;12.10;99.90
25688;DHT22;17407;51.120;3.702;2023-04-06T19:49:12;12.10;99.90
25688;DHT22;17407;51.120;3.702;2023-04-06T19:51:37;12.20;99.90
25688;DHT22;17407;51.120;3.702;2023-04-06T19:54:04;12.20;99.90
25688;DHT22;17407;51.120;3.702;2023-04-06T19:56:30;12.20;99.90
25688;DHT22;17407;51.120;3.702;2023-04-06T19:58:56;12.20;99.90
25688;DHT22;17407;51.120;3.702;2023-04-06T20:01:22;12.20;99.90
25688;DHT22;17407;51.120;3.702;2023-04-06T20:03:48;12.10;99.90
25688;DHT22;17407;51.120;3.702;2023-04-06T20:06:14;12.00;99.90
25688;DHT22;17407;51.120;3.702;2023-04-06T20:08:41;11.90;99.90
25688;DHT22;17407;51.120;3.702;2023-04-06T20:11:07;12.00;99.90
25688;DHT22;17407;51.120;3.702;2023-04-06T20:13:33;11.90;99.90
25688;DHT22;17407;51.120;3.702;2023-04-06T20:15:59;11.90;99.90
25688;DHT22;17407;51.120;3.702;2023-04-06T20:18:25;11.90;99.90
25688;DHT22;17407;51.120;3.702;2023-04-06T20:20:51;11.90;99.90
25688;DHT22;17407;51.120;3.702;2023-04-06T20:23:19;11.90;99.90
25688;DHT22;17407;51.120;3.702;2023-04-06T20:25:45;11.90;99.90
25688;DHT22;17407;51.120;3.702;2023-04-06T20:28:11;12.00;99.90
25688;DHT22;17407;51.120;3.702;2023-04-06T20:30:36;12.00;99.90
25688;DHT22;17407;51.120;3.702;2023-04-06T20:33:02;12.00;99.90
25688;DHT22;17407;51.120;3.702;2023-04-06T20:35:28;12.10;99.90
25688;DHT22;17407;51.120;3.702;2023-04-06T20:37:55;11.90;99.90
25688;DHT22;17407;51.120;3.702;2023-04-06T20:40:21;11.70;99.90
25688;DHT22;17407;51.120;3.702;2023-04-06T20:42:47;11.60;99.90
25688;DHT22;17407;51.120;3.702;2023-04-06T20:45:13;11.60;99.90
25688;DHT22;17407;51.120;3.702;2023-04-06T20:47:39;11.40;99.90
25688;DHT22;17407;51.120;3.702;2023-04-06T20:50:05;11.40;99.90
25688;DHT22;17407;51.120;3.702;2023-04-06T20:52:31;11.40;99.90
25688;DHT22;17407;51.120;3.702;2023-04-06T20:54:57;11.40;99.90
25688;DHT22;17407;51.120;3.702;2023-04-06T20:57:26;11.40;99.90
25688;DHT22;17407;51.120;3.702;2023-04-06T20:59:52;11.40;99.90
25688;DHT22;17407;51.120;3.702;2023-04-06T21:02:17;11.20;99.90
25688;DHT22;17407;51.120;3.702;2023-04-06T21:04:43;11.20;99.90
25688;DHT22;17407;51.120;3.702;2023-04-06T21:07:09;11.00;99.90
25688;DHT22;17407;51.120;3.702;2023-04-06T21:09:36;11.00;99.90
25688;DHT22;17407;51.120;3.702;2023-04-06T21:12:03;11.10;99.90
25688;DHT22;17407;51.120;3.702;2023-04-06T21:14:29;11.10;99.90
25688;DHT22;17407;51.120;3.702;2023-04-06T21:16:55;11.10;99.90
25688;DHT22;17407;51.120;3.702;2023-04-06T21:19:22;11.00;99.90
25688;DHT22;17407;51.120;3.702;2023-04-06T21:21:48;10.90;99.90
25688;DHT22;17407;51.120;3.702;2023-04-06T21:24:14;10.80;99.90
25688;DHT22;17407;51.120;3.702;2023-04-06T21:26:40;10.70;99.90
25688;DHT22;17407;51.120;3.702;2023-04-06T21:29:06;10.80;99.90
25688;DHT22;17407;51.120;3.702;2023-04-06T21:31:32;10.80;99.90
25688;DHT22;17407;51.120;3.702;2023-04-06T21:33:59;10.80;99.90
25688;DHT22;17407;51.120;3.702;2023-04-06T21:36:25;10.60;99.90
25688;DHT22;17407;51.120;3.702;2023-04-06T21:38:51;10.70;99.90
25688;DHT22;17407;51.120;3.702;2023-04-06T21:41:16;10.70;99.90
25688;DHT22;17407;51.120;3.702;2023-04-06T21:43:42;10.50;99.90
25688;DHT22;17407;51.120;3.702;2023-04-06T21:46:08;10.60;99.90
25688;DHT22;17407;51.120;3.702;2023-04-06T21:48:34;10.60;99.90
25688;DHT22;17407;51.120;3.702;2023-04-06T21:50:59;10.50;99.90
25688;DHT22;17407;51.120;3.702;2023-04-06T21:53:25;10.50;99.90
25688;DHT22;17407;51.120;3.702;2023-04-06T21:55:51;10.50;99.90
25688;DHT22;17407;51.120;3.702;2023-04-06T21:58:16;10.30;99.90
25688;DHT22;17407;51.120;3.702;2023-04-06T22:00:42;10.40;99.90
25688;DHT22;17407;51.120;3.702;2023-04-06T22:03:08;10.50;99.90
25688;DHT22;17407;51.120;3.702;2023-04-06T22:05:35;10.50;99.90
25688;DHT22;17407;51.120;3.702;2023-04-06T22:08:02;10.50;99.90
25688;DHT22;17407;51.120;3.702;2023-04-06T22:10:28;10.40;99.90
25688;DHT22;17407;51.120;3.702;2023-04-06T22:12:54;10.40;99.90
25688;DHT22;17407;51.120;3.702;2023-04-06T22:15:20;10.30;99.90
25688;DHT22;17407;51.120;3.702;2023-04-06T22:17:46;10.30;99.90
25688;DHT22;17407;51.120;3.702;2023-04-06T22:20:12;10.30;99.90
25688;DHT22;17407;51.120;3.702;2023-04-06T22:22:38;10.30;99.90
25688;DHT22;17407;51.120;3.702;2023-04-06T22:25:04;10.30;99.90
25688;DHT22;17407;51.120;3.702;2023-04-06T22:27:30;10.40;99.90
25688;DHT22;17407;51.120;3.702;2023-04-06T22:29:55;10.40;99.90
25688;DHT22;17407;51.120;3.702;2023-04-06T22:32:21;10.50;99.90
25688;DHT22;17407;51.120;3.702;2023-04-06T22:34:47;10.30;99.90
25688;DHT22;17407;51.120;3.702;2023-04-06T22:37:12;10.40;99.90
25688;DHT22;17407;51.120;3.702;2023-04-06T22:39:38;10.20;99.90
25688;DHT22;17407;51.120;3.702;2023-04-06T22:42:04;10.10;99.90
25688;DHT22;17407;51.120;3.702;2023-04-06T22:44:30;10.00;99.90
25688;DHT22;17407;51.120;3.702;2023-04-06T22:46:56;10.00;99.90
25688;DHT22;17407;51.120;3.702;2023-04-06T22:49:22;10.00;99.90
25688;DHT22;17407;51.120;3.702;2023-04-06T22:51:47;10.00;99.90
25688;DHT22;17407;51.120;3.702;2023-04-06T22:54:13;9.90;99.90
25688;DHT22;17407;51.120;3.702;2023-04-06T22:56:39;10.00;99.90
25688;DHT22;17407;51.120;3.702;2023-04-06T22:59:05;9.90;99.90
25688;DHT22;17407;51.120;3.702;2023-04-06T23:01:31;9.90;99.90
25688;DHT22;17407;51.120;3.702;2023-04-06T23:03:57;9.80;99.90
25688;DHT22;17407;51.120;3.702;2023-04-06T23:06:22;9.80;99.90
25688;DHT22;17407;51.120;3.702;2023-04-06T23:08:48;9.80;99.90
25688;DHT22;17407;51.120;3.702;2023-04-06T23:11:14;9.90;99.90
25688;DHT22;17407;51.120;3.702;2023-04-06T23:13:39;9.80;99.90
25688;DHT22;17407;51.120;3.702;2023-04-06T23:16:07;9.70;99.90
25688;DHT22;17407;51.120;3.702;2023-04-06T23:18:33;9.50;99.90
25688;DHT22;17407;51.120;3.702;2023-04-06T23:20:59;9.40;99.90
25688;DHT22;17407;51.120;3.702;2023-04-06T23:23:25;9.30;99.90
25688;DHT22;17407;51.120;3.702;2023-04-06T23:25:50;9.10;99.90
25688;DHT22;17407;51.120;3.702;2023-04-06T23:28:16;9.10;99.90
25688;DHT22;17407;51.120;3.702;2023-04-06T23:30:42;9.10;99.90
25688;DHT22;17407;51.120;3.702;2023-04-06T23:33:07;9.00;99.90
25688;DHT22;17407;51.120;3.702;2023-04-06T23:35:33;9.10;99.90
25688;DHT22;17407;51.120;3.702;2023-04-06T23:37:59;9.10;99.90
25688;DHT22;17407;51.120;3.702;2023-04-06T23:40:24;9.20;99.90
25688;DHT22;17407;51.120;3.702;2023-04-06T23:42:50;9.20;99.90
25688;DHT22;17407;51.120;3.702;2023-04-06T23:45:16;9.40;99.90
25688;DHT22;17407;51.120;3.702;2023-04-06T23:47:42;9.50;99.90
25688;DHT22;17407;51.120;3.702;2023-04-06T23:50:07;9.60;99.90
25688;DHT22;17407;51.120;3.702;2023-04-06T23:52:33;9.60;99.90
25688;DHT22;17407;51.120;3.702;2023-04-06T23:54:59;9.70;99.90
25688;DHT22;17407;51.120;3.702;2023-04-06T23:57:25;9.80;99.90
25688;DHT22;17407;51.120;3.702;2023-04-06T23:59:51;9.90;99.90
